Terminal Aerodrome Forecast
Issued by NWS

Home | Current Version | Previous Version | Text Only | Print | Product List | Glossary On
Versions: 1 2 3 4 5 6 7 8 9 10 11 12 13 14 15 16 17 18 19 20 21 22 23 24 25 26
000
FTUS44 KHGX 310520
TAFUTS
TAF
KUTS 310520Z 3106/0106 36004KT P6SM BKN120
     FM311200 36008KT P6SM FEW050 SCT250
     FM311600 35009G16KT P6SM SKC
     FM010300 35006KT P6SM SKC=

USA.gov is the U.S. government's official web portal to all federal, state and local government web resources and services.